Time;durP1;ratioP1;P1;durP2;ratioP2;P2;SDS_P1;SDS_P2;PMS_P1;PMS_P2;Temp;Humidity;BMP_temperature;BMP_pressure;BME280_temperature;BME280_humidity;BME280_pressure;Samples;Min_cycle;Max_cycle;Signal;HPM_P1;HPM_P2
2022/06/20 00:02:08;;;;;;;3.83;2.03;;;;;;;9.10;100.00;101767.97;4980154;28;20677;-81
2022/06/20 00:04:34;;;;;;;6.88;2.28;;;;;;;9.07;100.00;101758.38;4969393;28;20093;-82
2022/06/20 00:06:59;;;;;;;9.88;2.40;;;;;;;8.87;100.00;101722.66;4971609;28;20141;-82
2022/06/20 00:09:25;;;;;;;10.65;3.05;;;;;;;8.93;100.00;101748.91;4987724;28;20030;-82
2022/06/20 00:11:51;;;;;;;9.82;2.55;;;;;;;8.88;100.00;101745.81;4973387;28;20034;-84
2022/06/20 00:14:27;;;;;;;9.55;1.90;;;;;;;8.77;100.00;101744.09;4981024;28;22882;-81
2022/06/20 00:16:53;;;;;;;12.90;3.25;;;;;;;8.69;100.00;101743.13;4987625;28;20547;-81
2022/06/20 00:19:18;;;;;;;11.40;2.10;;;;;;;8.56;100.00;101749.59;4987021;28;20031;-80
2022/06/20 00:21:44;;;;;;;13.60;2.75;;;;;;;8.45;100.00;101741.66;4975456;28;20451;-80
2022/06/20 00:24:10;;;;;;;11.57;2.85;;;;;;;8.36;100.00;101729.03;4985058;28;20038;-81
2022/06/20 00:26:36;;;;;;;10.90;3.13;;;;;;;8.43;100.00;101742.78;4985740;28;20030;-83
2022/06/20 00:29:03;;;;;;;9.65;2.97;;;;;;;8.47;100.00;101754.94;4975412;28;20041;-81
2022/06/20 00:31:29;;;;;;;7.97;2.95;;;;;;;8.48;100.00;101744.06;4966523;28;20050;-82
2022/06/20 00:33:54;;;;;;;10.25;3.20;;;;;;;8.48;100.00;101748.59;4955365;28;20122;-82
2022/06/20 00:36:20;;;;;;;9.73;2.28;;;;;;;8.44;100.00;101744.47;4958820;28;20034;-85
2022/06/20 00:38:51;;;;;;;9.25;2.50;;;;;;;8.39;100.00;101750.28;4956959;28;20045;-81
2022/06/20 00:41:20;;;;;;;12.10;2.70;;;;;;;8.34;100.00;101753.31;5006717;28;20034;-83
2022/06/20 00:43:48;;;;;;;11.70;3.00;;;;;;;8.36;100.00;101753.16;4989582;28;20105;-82
2022/06/20 00:47:12;;;;;;;8.63;3.28;;;;;;;8.49;100.00;101748.44;4992597;28;20053;-86
2022/06/20 00:50:22;;;;;;;8.60;2.42;;;;;;;8.56;100.00;101759.47;4970621;28;20100;-82
2022/06/20 00:53:22;;;;;;;11.18;2.92;;;;;;;8.72;100.00;101746.38;4986929;28;20127;-84
2022/06/20 00:56:16;;;;;;;10.60;3.55;;;;;;;8.76;100.00;101750.47;4974514;28;20096;-82
2022/06/20 00:59:09;;;;;;;9.18;2.90;;;;;;;8.74;100.00;101738.19;4972364;28;20524;-84
2022/06/20 01:01:54;;;;;;;9.18;2.97;;;;;;;8.75;100.00;101754.13;4987779;28;20049;-84
2022/06/20 01:04:42;;;;;;;7.45;3.00;;;;;;;8.76;100.00;101744.28;4986864;28;20124;-81
2022/06/20 01:07:36;;;;;;;9.82;3.00;;;;;;;8.75;100.00;101739.88;4974914;28;20044;-86
2022/06/20 01:10:21;;;;;;;465.85;120.40;;;;;;;8.75;100.00;101751.44;4971847;28;20057;-83
2022/06/20 01:13:09;;;;;;;665.15;383.70;;;;;;;8.71;100.00;101757.25;4973005;28;20122;-81
2022/06/20 01:15:56;;;;;;;15.00;3.08;;;;;;;8.75;100.00;101750.59;4983445;28;20050;-82
2022/06/20 01:18:42;;;;;;;12.88;3.05;;;;;;;8.71;100.00;101736.63;4989492;28;20041;-83
2022/06/20 01:21:34;;;;;;;12.38;4.10;;;;;;;8.66;100.00;101740.72;4980549;28;20124;-83
2022/06/20 01:24:28;;;;;;;14.55;3.83;;;;;;;8.56;100.00;101732.66;4986759;28;20117;-80
2022/06/20 01:27:24;;;;;;;10.25;3.28;;;;;;;8.51;100.00;101748.31;4986487;28;20064;-85
2022/06/20 01:30:08;;;;;;;8.98;4.25;;;;;;;8.47;100.00;101741.53;4988971;28;20048;-83
2022/06/20 01:32:55;;;;;;;12.50;3.85;;;;;;;8.58;100.00;101752.13;4981978;28;20124;-81
2022/06/20 01:38:44;;;;;;;14.68;3.40;;;;;;;8.81;100.00;101747.34;4982553;28;20046;-82
2022/06/20 01:44:36;;;;;;;11.05;3.05;;;;;;;8.88;100.00;101745.81;4975588;28;20057;-82
2022/06/20 01:47:21;;;;;;;13.73;3.20;;;;;;;8.89;100.00;101727.88;4972016;28;20550;-84
2022/06/20 01:50:06;;;;;;;9.90;3.42;;;;;;;8.82;100.00;101722.25;4988413;28;20033;-79
2022/06/20 01:52:50;;;;;;;7.55;2.83;;;;;;;8.81;100.00;101717.84;4972002;28;20037;-80
2022/06/20 01:55:35;;;;;;;13.88;3.30;;;;;;;8.73;100.00;101712.34;4984346;28;20096;-82
2022/06/20 01:58:35;;;;;;;11.30;3.70;;;;;;;8.57;100.00;101708.41;4966273;28;20396;-81
2022/06/20 02:01:19;;;;;;;12.38;2.80;;;;;;;8.47;100.00;101715.59;4986482;28;20503;-79
2022/06/20 02:04:06;;;;;;;11.10;3.45;;;;;;;8.53;100.00;101731.09;4975155;28;20159;-81
2022/06/20 02:06:51;;;;;;;15.70;4.75;;;;;;;8.55;100.00;101713.06;4974842;28;20220;-83
2022/06/20 02:09:35;;;;;;;14.07;3.95;;;;;;;8.75;100.00;101727.31;4966543;28;20096;-82
2022/06/20 02:12:20;;;;;;;15.02;3.63;;;;;;;8.80;100.00;101717.00;4987283;28;20550;-82
2022/06/20 02:15:05;;;;;;;15.88;3.58;;;;;;;8.86;100.00;101706.72;4983250;28;20077;-80
2022/06/20 02:17:51;;;;;;;10.07;3.08;;;;;;;8.97;100.00;101714.59;4987383;28;20076;-84
2022/06/20 02:20:45;;;;;;;12.63;3.20;;;;;;;9.05;100.00;101717.44;4983957;28;20049;-82
2022/06/20 02:23:32;;;;;;;10.07;2.97;;;;;;;9.00;100.00;101715.19;4984231;28;20096;-81
2022/06/20 02:26:17;;;;;;;8.07;3.03;;;;;;;9.14;100.00;101734.53;4982653;28;20555;-83
2022/06/20 02:29:05;;;;;;;12.38;3.13;;;;;;;9.13;100.00;101719.41;4973438;28;20089;-80
2022/06/20 02:31:53;;;;;;;9.73;2.80;;;;;;;9.10;100.00;101707.09;4976196;28;20044;-82
2022/06/20 02:34:37;;;;;;;10.50;3.28;;;;;;;8.96;100.00;101716.44;4981357;28;20496;-80
2022/06/20 02:37:25;;;;;;;15.90;4.00;;;;;;;8.79;100.00;101725.22;4971398;28;20093;-85
2022/06/20 02:40:14;;;;;;;15.02;4.15;;;;;;;8.66;100.00;101712.06;4981910;28;20045;-81
2022/06/20 02:43:03;;;;;;;9.07;2.65;;;;;;;8.51;100.00;101706.25;4989636;28;20050;-83
2022/06/20 02:45:48;;;;;;;9.32;3.78;;;;;;;8.46;100.00;101699.63;4984750;28;20076;-80
2022/06/20 02:48:33;;;;;;;7.88;3.00;;;;;;;8.26;100.00;101699.56;4974669;28;20510;-84
2022/06/20 02:51:26;;;;;;;11.25;3.35;;;;;;;8.07;100.00;101705.72;4988282;28;20045;-83
2022/06/20 02:54:12;;;;;;;4.88;2.35;;;;;;;7.77;100.00;101685.16;4971994;28;20038;-84
2022/06/20 02:57:03;;;;;;;12.10;3.33;;;;;;;7.55;100.00;101704.94;4987092;28;20614;-81
2022/06/20 02:59:51;;;;;;;15.70;3.58;;;;;;;7.30;100.00;101714.22;4984004;28;20126;-84
2022/06/20 03:02:37;;;;;;;11.20;3.67;;;;;;;7.17;100.00;101714.44;4971660;28;20053;-82
2022/06/20 03:05:21;;;;;;;11.02;3.22;;;;;;;7.23;100.00;101703.22;4974282;28;20553;-81
2022/06/20 03:08:05;;;;;;;13.98;3.13;;;;;;;7.21;100.00;101705.16;4968998;28;20395;-80
2022/06/20 03:10:53;;;;;;;8.50;2.33;;;;;;;7.16;100.00;101694.00;4968594;28;20045;-81
2022/06/20 03:13:39;;;;;;;6.68;2.10;;;;;;;7.16;100.00;101696.66;4982986;28;20041;-82
2022/06/20 03:16:23;;;;;;;12.55;3.38;;;;;;;7.08;100.00;101700.97;4984578;28;20057;-81
2022/06/20 03:19:19;;;;;;;13.05;3.13;;;;;;;6.95;100.00;101691.31;4976077;28;20046;-83
2022/06/20 03:22:06;;;;;;;4.18;1.90;;;;;;;6.92;100.00;101686.22;4982773;28;20099;-81
2022/06/20 03:24:51;;;;;;;18.30;3.15;;;;;;;7.09;100.00;101691.97;4971541;28;20041;-82
2022/06/20 03:27:37;;;;;;;10.55;2.85;;;;;;;7.19;100.00;101676.84;4989691;28;20104;-81
2022/06/20 03:30:21;;;;;;;13.00;3.10;;;;;;;7.39;100.00;101689.38;4966887;28;20501;-79
2022/06/20 03:33:08;;;;;;;9.88;3.50;;;;;;;7.31;100.00;101696.34;4980319;28;20103;-79
2022/06/20 03:35:56;;;;;;;10.20;3.10;;;;;;;7.30;100.00;101695.47;4981747;28;20121;-80
2022/06/20 03:38:42;;;;;;;7.25;2.90;;;;;;;7.33;100.00;101694.38;4968047;28;20066;-80
2022/06/20 03:41:27;;;;;;;14.60;3.78;;;;;;;7.34;100.00;101693.41;4979825;28;20336;-81
2022/06/20 03:44:18;;;;;;;10.38;4.25;;;;;;;7.24;100.00;101701.38;4979010;28;20105;-79
2022/06/20 03:47:05;;;;;;;9.18;2.70;;;;;;;7.14;100.00;101700.44;4984432;28;20053;-83
2022/06/20 03:50:04;;;;;;;11.35;4.28;;;;;;;7.11;100.00;101703.41;4986753;28;20054;-82
2022/06/20 03:53:06;;;;;;;9.98;3.40;;;;;;;7.00;100.00;101680.25;4976361;28;20114;-82
2022/06/20 03:55:50;;;;;;;;;;;;;;;7.10;100.00;101704.38;4986356;28;20267;-82
2022/06/20 03:58:38;;;;;;;6.63;2.42;;;;;;;7.18;100.00;101710.78;4983521;28;19921;-85
2022/06/20 04:01:49;;;;;;;13.68;4.25;;;;;;;7.19;100.00;101714.28;4966602;28;20093;-78
2022/06/20 04:04:41;;;;;;;14.27;4.18;;;;;;;7.05;100.00;101715.47;4994701;28;20550;-81
2022/06/20 04:07:37;;;;;;;10.57;3.78;;;;;;;6.82;100.00;101714.72;4985873;28;20053;-81
2022/06/20 04:13:54;;;;;;;11.55;3.10;;;;;;;6.49;100.00;101732.56;4990509;28;20506;-82
2022/06/20 04:20:37;;;;;;;10.52;3.88;;;;;;;6.51;100.00;101735.09;4986230;28;20045;-82
2022/06/20 04:23:24;;;;;;;10.52;2.78;;;;;;;6.64;100.00;101738.47;4992161;28;20049;-79
2022/06/20 04:26:17;;;;;;;10.35;2.40;;;;;;;6.79;100.00;101747.88;4984177;28;20045;-81
2022/06/20 04:29:07;;;;;;;10.18;3.53;;;;;;;6.80;100.00;101754.06;4980999;28;20128;-78
2022/06/20 04:32:10;;;;;;;9.88;3.75;;;;;;;6.72;100.00;101751.19;4985975;28;20089;-83
2022/06/20 04:34:58;;;;;;;8.52;3.80;;;;;;;6.63;100.00;101754.63;4984894;28;20053;-81
2022/06/20 04:38:12;;;;;;;8.10;2.70;;;;;;;6.44;100.00;101761.47;4999394;28;20049;-81
2022/06/20 04:41:26;;;;;;;9.73;3.30;;;;;;;6.35;100.00;101762.19;4968526;28;20069;-82
2022/06/20 04:44:47;;;;;;;6.40;3.05;;;;;;;6.26;100.00;101766.47;4985451;28;20103;-82
2022/06/20 04:47:31;;;;;;;;;;;;;;;6.12;100.00;101767.59;4993136;28;20040;-80
2022/06/20 04:50:18;;;;;;;20.25;5.55;;;;;;;6.07;100.00;101774.25;4984833;28;19941;-83
2022/06/20 04:53:08;;;;;;;19.42;5.07;;;;;;;5.98;100.00;101769.63;4986837;28;20044;-80
2022/06/20 04:55:55;;;;;;;14.85;4.85;;;;;;;5.89;100.00;101769.34;4974023;28;20053;-83
2022/06/20 04:58:49;;;;;;;15.25;4.28;;;;;;;6.37;100.00;101774.47;4995236;28;20053;-84
2022/06/20 05:01:34;;;;;;;10.30;3.55;;;;;;;7.36;100.00;101766.38;4984619;28;20045;-81
2022/06/20 05:04:36;;;;;;;15.18;3.65;;;;;;;8.13;100.00;101774.81;4983272;28;20036;-78
2022/06/20 05:07:28;;;;;;;8.35;2.78;;;;;;;8.72;100.00;101791.94;4988404;28;20057;-80
2022/06/20 05:10:20;;;;;;;10.93;3.33;;;;;;;9.25;100.00;101766.56;4990788;28;20483;-81
2022/06/20 05:13:41;;;;;;;9.35;3.42;;;;;;;9.90;100.00;101782.84;4976932;28;20041;-80
2022/06/20 05:16:30;;;;;;;10.45;3.38;;;;;;;10.59;100.00;101791.47;4983272;28;20049;-82
2022/06/20 05:19:20;;;;;;;6.03;2.72;;;;;;;11.14;97.85;101786.84;4975791;28;20033;-79
2022/06/20 05:22:14;;;;;;;7.68;2.67;;;;;;;11.52;94.37;101789.34;4985691;28;20037;-80
2022/06/20 05:25:00;;;;;;;9.48;2.85;;;;;;;11.91;92.83;101787.09;4969710;28;20073;-80
2022/06/20 05:27:53;;;;;;;6.57;2.42;;;;;;;12.38;90.83;101791.19;4980024;28;20049;-80
2022/06/20 05:30:39;;;;;;;13.25;3.30;;;;;;;12.86;89.33;101793.22;4975950;28;20068;-78
2022/06/20 05:33:47;;;;;;;7.18;2.25;;;;;;;13.30;87.21;101792.94;4989757;28;20570;-81
2022/06/20 05:36:24;;;;;;;5.63;2.58;;;;;;;13.68;85.58;101797.81;4972223;28;20026;-83
2022/06/20 05:39:25;;;;;;;9.52;2.72;;;;;;;14.03;84.42;101802.84;4972934;28;20125;-82
2022/06/20 05:41:51;;;;;;;5.82;2.88;;;;;;;14.42;82.49;101796.63;4988672;28;20068;-81
2022/06/20 05:44:17;;;;;;;7.30;2.47;;;;;;;14.87;80.68;101803.19;4987596;28;20026;-82
2022/06/20 05:46:48;;;;;;;7.78;2.25;;;;;;;15.40;78.94;101806.03;4988114;28;20026;-80
2022/06/20 05:49:25;;;;;;;13.02;2.45;;;;;;;15.92;76.11;101801.66;4983710;28;20392;-79
2022/06/20 05:51:51;;;;;;;9.90;2.63;;;;;;;16.31;73.95;101808.69;4968871;28;20042;-82
2022/06/20 05:54:23;;;;;;;5.18;2.08;;;;;;;16.55;72.66;101808.38;4972056;28;20030;-80
2022/06/20 05:56:56;;;;;;;8.45;2.38;;;;;;;16.84;69.94;101810.22;4971418;28;20038;-83
2022/06/20 05:59:27;;;;;;;6.68;1.80;;;;;;;16.89;68.52;101809.66;4948235;28;20038;-82
2022/06/20 06:01:57;;;;;;;5.28;2.25;;;;;;;16.62;68.36;101813.91;4967634;28;20037;-80
2022/06/20 06:04:29;;;;;;;9.07;1.92;;;;;;;16.87;68.34;101807.13;4972384;28;20101;-81
2022/06/20 06:07:01;;;;;;;5.70;2.00;;;;;;;17.17;66.79;101814.34;4969376;28;20432;-81
2022/06/20 06:09:48;;;;;;;8.23;2.53;;;;;;;17.77;66.79;101815.72;4980283;28;20030;-81
2022/06/20 06:12:22;;;;;;;4.35;2.05;;;;;;;18.43;64.80;101820.75;4993463;28;20061;-80
2022/06/20 06:15:12;;;;;;;9.20;2.30;;;;;;;18.94;61.31;101816.78;4978650;28;20023;-84
2022/06/20 06:17:48;;;;;;;5.50;2.28;;;;;;;19.10;59.93;101824.56;4979057;28;20034;-81
2022/06/20 06:20:21;;;;;;;8.80;2.03;;;;;;;19.16;57.44;101812.88;4982854;28;20335;-81
2022/06/20 06:23:13;;;;;;;6.75;2.00;;;;;;;19.05;58.10;101818.91;4953735;28;20042;-82
2022/06/20 06:25:49;;;;;;;10.77;2.55;;;;;;;19.18;58.07;101832.56;4964637;28;20057;-80
2022/06/20 06:28:25;;;;;;;7.10;1.85;;;;;;;19.48;55.72;101829.47;4978387;28;20450;-82
2022/06/20 06:31:09;;;;;;;6.50;2.42;;;;;;;19.89;53.56;101836.63;4944379;28;20129;-79
2022/06/20 06:34:01;;;;;;;12.45;3.13;;;;;;;20.04;54.65;101834.50;4983550;28;20026;-81
2022/06/20 06:36:38;;;;;;;8.32;2.08;;;;;;;20.46;51.08;101826.84;4974971;28;20042;-80
2022/06/20 06:39:14;;;;;;;8.73;2.60;;;;;;;20.38;52.76;101830.66;4981829;28;20503;-82
2022/06/20 06:41:48;;;;;;;9.60;2.33;;;;;;;20.06;51.80;101805.13;4962650;28;20030;-81
2022/06/20 06:44:24;;;;;;;9.82;1.80;;;;;;;19.89;52.18;101834.72;4958795;28;20058;-79
2022/06/20 06:46:52;;;;;;;4.30;1.48;;;;;;;19.75;50.79;101816.69;4963668;28;20038;-80
2022/06/20 06:49:27;;;;;;;9.45;2.15;;;;;;;19.44;51.17;101817.28;4984699;28;20035;-81
2022/06/20 06:52:08;;;;;;;9.63;1.95;;;;;;;19.24;54.32;101834.47;4978799;28;20073;-79
2022/06/20 06:54:42;;;;;;;5.72;1.98;;;;;;;19.68;51.55;101854.88;4964098;28;20475;-80
2022/06/20 06:57:31;;;;;;;6.55;2.25;;;;;;;20.18;50.29;101840.78;4995175;28;20496;-79
2022/06/20 07:00:03;;;;;;;6.25;1.98;;;;;;;20.92;49.01;101847.69;4989252;28;20031;-80
2022/06/20 07:02:33;;;;;;;6.53;2.03;;;;;;;21.38;47.99;101838.41;4969556;28;20535;-81
2022/06/20 07:05:08;;;;;;;6.95;1.92;;;;;;;22.25;45.05;101835.75;4985681;28;20038;-78
2022/06/20 07:07:42;;;;;;;5.93;1.90;;;;;;;22.92;44.95;101822.06;4969490;28;20062;-81
2022/06/20 07:10:18;;;;;;;5.25;2.00;;;;;;;23.76;41.73;101823.97;4967681;28;20038;-81
2022/06/20 07:12:50;;;;;;;6.47;1.92;;;;;;;24.21;40.80;101815.13;4966156;28;20507;-81
2022/06/20 07:15:21;;;;;;;6.10;1.90;;;;;;;24.32;39.63;101808.78;4986718;28;20092;-78
2022/06/20 07:17:49;;;;;;;6.65;1.98;;;;;;;22.65;41.57;101807.88;4955610;28;20046;-78
2022/06/20 07:20:18;;;;;;;7.40;2.05;;;;;;;23.40;41.31;101810.19;4977783;28;20037;-78
2022/06/20 07:22:44;;;;;;;5.47;2.03;;;;;;;23.36;40.15;101799.91;4971311;28;20034;-79
2022/06/20 07:25:18;;;;;;;4.95;2.00;;;;;;;23.21;41.89;101803.13;4982998;28;20273;-83
2022/06/20 07:27:48;;;;;;;4.00;1.60;;;;;;;23.61;41.35;101811.53;4966338;28;20046;-80
2022/06/20 07:30:27;;;;;;;8.43;2.22;;;;;;;23.06;42.58;101798.06;4976887;28;20034;-78
2022/06/20 07:33:01;;;;;;;6.00;1.90;;;;;;;22.08;43.55;101805.34;4965191;28;20178;-80
2022/06/20 07:35:30;;;;;;;5.10;2.15;;;;;;;21.73;45.31;101810.56;4983889;28;20022;-81
2022/06/20 07:38:03;;;;;;;5.90;2.10;;;;;;;22.14;44.01;101789.91;4965152;28;20388;-78
2022/06/20 07:40:42;;;;;;;4.88;1.58;;;;;;;23.10;41.74;101798.41;4985994;28;20034;-82
2022/06/20 07:43:15;;;;;;;6.35;1.70;;;;;;;23.92;40.56;101806.78;4986178;28;20041;-81
2022/06/20 07:45:47;;;;;;;6.63;1.90;;;;;;;24.40;40.00;101789.16;4985789;28;20034;-80
2022/06/20 07:48:24;;;;;;;3.78;1.42;;;;;;;24.70;35.57;101802.72;4963484;28;20034;-81
2022/06/20 07:51:07;;;;;;;5.53;2.33;;;;;;;23.00;41.50;101804.47;4970044;28;20045;-81
2022/06/20 07:53:43;;;;;;;7.63;2.08;;;;;;;21.44;44.45;101791.00;4988720;28;20049;-84
2022/06/20 07:56:20;;;;;;;6.78;1.90;;;;;;;19.77;47.77;101803.69;4985999;28;20097;-84
2022/06/20 07:58:54;;;;;;;7.05;2.88;;;;;;;21.30;47.86;101806.66;4952727;28;20034;-84
2022/06/20 08:01:28;;;;;;;7.57;3.40;;;;;;;23.25;42.74;101796.06;4953366;28;20030;-81
2022/06/20 08:03:57;;;;;;;5.57;1.80;;;;;;;24.66;39.18;101807.00;4970312;28;20093;-80
2022/06/20 08:06:32;;;;;;;9.68;4.00;;;;;;;25.52;36.27;101801.47;4989573;28;20030;-80
2022/06/20 08:09:16;;;;;;;4.70;1.73;;;;;;;24.94;37.93;101813.63;4985109;28;20022;-80
2022/06/20 08:12:01;;;;;;;3.88;1.80;;;;;;;26.27;34.65;101821.31;4967259;28;20046;-81
2022/06/20 08:14:38;;;;;;;5.90;1.88;;;;;;;26.58;33.81;101814.31;4986280;28;20409;-81
2022/06/20 08:17:08;;;;;;;4.90;2.08;;;;;;;26.30;34.89;101821.66;4956629;28;20696;-82
2022/06/20 08:19:35;;;;;;;4.40;1.70;;;;;;;27.02;33.36;101814.25;4989523;28;20034;-80
2022/06/20 08:22:06;;;;;;;8.32;2.10;;;;;;;27.91;32.03;101823.84;4973172;28;20034;-82
2022/06/20 08:24:57;;;;;;;6.65;1.75;;;;;;;27.79;31.02;101823.22;4993316;28;20448;-79
2022/06/20 08:27:46;;;;;;;6.60;2.00;;;;;;;27.16;32.95;101821.00;4966988;28;20148;-81
2022/06/20 08:30:23;;;;;;;5.05;1.52;;;;;;;24.91;36.10;101820.44;4948436;28;20121;-79
2022/06/20 08:33:07;;;;;;;6.47;2.10;;;;;;;24.23;37.38;101829.47;4971134;28;20074;-82
2022/06/20 08:35:42;;;;;;;7.40;1.77;;;;;;;21.66;41.38;101816.06;4966817;28;20081;-79
2022/06/20 08:38:45;;;;;;;7.10;1.75;;;;;;;21.26;43.75;101810.88;4955947;28;20141;-87
2022/06/20 08:41:22;;;;;;;5.18;2.17;;;;;;;24.16;38.40;101807.63;4988597;28;20039;-84
2022/06/20 08:44:06;;;;;;;7.60;2.28;;;;;;;25.47;36.71;101811.56;4974520;28;20057;-86
2022/06/20 08:46:50;;;;;;;5.78;2.20;;;;;;;26.46;33.78;101819.94;4968801;28;20030;-85
2022/06/20 08:49:55;;;;;;;4.38;1.73;;;;;;;27.33;31.58;101814.53;4987842;28;20049;-83
2022/06/20 08:52:20;;;;;;;4.97;2.00;;;;;;;27.62;31.60;101807.59;4972399;28;20085;-85
2022/06/20 08:55:10;;;;;;;8.02;1.90;;;;;;;28.14;30.16;101814.34;4973946;28;20065;-85
2022/06/20 08:58:04;;;;;;;5.32;1.60;;;;;;;28.36;29.26;101807.78;4984095;28;20042;-84
2022/06/20 09:01:14;;;;;;;2.60;1.50;;;;;;;28.01;29.93;101806.50;4983480;28;20066;-84
2022/06/20 09:03:54;;;;;;;5.85;2.15;;;;;;;27.85;30.55;101800.06;4968683;28;20097;-84
2022/06/20 09:06:54;;;;;;;7.05;1.92;;;;;;;28.29;29.70;101810.81;4978885;28;20384;-83
2022/06/20 09:09:37;;;;;;;5.68;1.90;;;;;;;28.60;30.27;101817.31;4984401;28;20034;-84
2022/06/20 09:12:34;;;;;;;5.78;1.98;;;;;;;27.61;31.20;101808.72;4989934;28;20034;-84
2022/06/20 09:15:24;;;;;;;5.60;1.70;;;;;;;25.47;34.39;101795.03;4989541;28;20043;-85
2022/06/20 09:17:53;;;;;;;4.70;1.70;;;;;;;26.38;33.19;101808.50;4965565;28;20081;-82
2022/06/20 09:20:54;;;;;;;4.50;1.88;;;;;;;24.76;35.52;101796.22;4985850;28;20476;-87
2022/06/20 09:23:22;;;;;;;;;;;;;;;24.19;37.63;101804.38;4974556;28;20639;-84
2022/06/20 09:25:57;;;;;;;4.95;1.73;;;;;;;25.55;35.20;101783.59;4986021;28;20008;-84
2022/06/20 09:28:25;;;;;;;5.97;1.85;;;;;;;26.75;32.82;101801.28;4968142;28;20037;-84
2022/06/20 09:30:57;;;;;;;5.72;1.90;;;;;;;27.85;33.00;101808.34;4992591;28;20479;-83
2022/06/20 09:33:28;;;;;;;5.13;1.70;;;;;;;28.90;31.14;101802.75;4991882;28;20038;-82
2022/06/20 09:36:16;;;;;;;5.53;2.00;;;;;;;29.66;29.42;101803.91;4984974;28;20027;-84
2022/06/20 09:38:52;;;;;;;7.68;2.22;;;;;;;29.80;28.93;101780.06;4981566;28;20133;-87
2022/06/20 09:41:43;;;;;;;6.25;1.80;;;;;;;29.53;28.64;101773.97;4986862;28;20033;-82
2022/06/20 09:44:27;;;;;;;6.07;2.17;;;;;;;29.45;29.07;101782.84;4970804;28;20034;-83
2022/06/20 09:46:53;;;;;;;6.88;2.00;;;;;;;29.44;28.86;101767.34;4984325;28;20154;-83
2022/06/20 09:49:34;;;;;;;5.95;2.05;;;;;;;29.26;29.73;101780.66;4986917;28;20500;-82
2022/06/20 09:52:08;;;;;;;9.18;1.95;;;;;;;29.53;29.46;101779.53;4991314;28;20049;-83
2022/06/20 09:54:50;;;;;;;6.47;1.73;;;;;;;30.06;28.47;101774.44;4987317;28;20117;-82
2022/06/20 09:57:18;;;;;;;;;;;;;;;30.01;28.00;101780.03;4964647;28;20755;-81
2022/06/20 10:00:04;;;;;;;6.30;1.95;;;;;;;29.70;28.96;101777.31;4981400;28;19921;-84
2022/06/20 10:02:55;;;;;;;6.25;1.92;;;;;;;29.46;29.01;101771.50;4990326;28;20026;-83
2022/06/20 10:05:44;;;;;;;5.55;1.90;;;;;;;29.42;30.05;101759.31;4990485;28;20026;-81
2022/06/20 10:08:31;;;;;;;6.78;2.22;;;;;;;29.65;29.48;101763.47;4974396;28;20034;-83
2022/06/20 10:11:25;;;;;;;7.22;2.20;;;;;;;29.43;30.58;101755.44;4983429;28;20081;-82
2022/06/20 10:13:56;;;;;;;6.40;1.92;;;;;;;29.19;30.39;101755.19;4961094;28;20038;-81
2022/06/20 10:16:43;;;;;;;6.22;2.40;;;;;;;29.14;30.94;101746.88;4971014;28;20471;-81
2022/06/20 10:19:50;;;;;;;5.65;1.80;;;;;;;29.74;29.28;101750.69;4982994;28;20128;-83
2022/06/20 10:23:02;;;;;;;5.05;1.80;;;;;;;29.86;29.01;101752.34;4990350;28;20566;-83
2022/06/20 10:25:54;;;;;;;11.18;2.80;;;;;;;29.46;29.81;101748.50;4953314;28;20035;-82
2022/06/20 10:28:32;;;;;;;5.40;1.90;;;;;;;29.33;29.47;101756.28;4971998;28;20036;-82
2022/06/20 10:30:57;;;;;;;6.18;1.98;;;;;;;29.45;30.51;101744.06;4974584;28;20038;-82
2022/06/20 10:33:32;;;;;;;5.00;2.35;;;;;;;29.86;28.52;101750.38;4989674;28;20105;-83
2022/06/20 10:36:11;;;;;;;5.25;2.08;;;;;;;29.93;29.38;101741.75;4983342;28;20031;-84
2022/06/20 10:38:40;;;;;;;6.65;2.25;;;;;;;30.10;29.18;101747.81;4967463;28;20032;-81
2022/06/20 10:41:23;;;;;;;4.82;2.03;;;;;;;29.97;29.06;101727.06;4975313;28;20030;-82
2022/06/20 10:44:06;;;;;;;5.88;2.00;;;;;;;30.38;28.60;101738.00;4974823;28;20038;-80
2022/06/20 10:46:40;;;;;;;3.30;2.03;;;;;;;30.61;28.33;101736.47;4990954;28;20190;-81
2022/06/20 10:49:22;;;;;;;6.20;1.98;;;;;;;30.75;27.99;101733.91;4984064;28;20060;-81
2022/06/20 10:52:18;;;;;;;5.28;1.90;;;;;;;29.91;29.08;101732.91;4968415;28;20074;-80
2022/06/20 10:54:50;;;;;;;6.60;1.83;;;;;;;30.16;28.78;101741.13;4985057;28;20031;-83
2022/06/20 10:57:28;;;;;;;6.90;2.15;;;;;;;29.96;28.62;101738.44;4990984;28;20064;-80
2022/06/20 11:00:12;;;;;;;5.45;1.70;;;;;;;29.99;29.19;101735.94;4989191;28;20124;-81
2022/06/20 11:02:55;;;;;;;7.20;2.53;;;;;;;29.57;30.23;101719.66;4982143;28;20100;-80
2022/06/20 11:06:03;;;;;;;7.68;2.40;;;;;;;29.44;29.98;101728.56;4989444;28;20030;-82
2022/06/20 11:08:43;;;;;;;7.22;1.95;;;;;;;29.78;28.80;101729.63;4989273;28;20057;-81
2022/06/20 11:11:35;;;;;;;4.72;2.05;;;;;;;30.16;29.09;101729.19;4974027;28;20030;-82
2022/06/20 11:14:06;;;;;;;;;;;;;;;30.79;28.49;101725.81;4987681;28;20026;-81
2022/06/20 11:16:53;;;;;;;4.32;1.67;;;;;;;30.98;26.89;101715.69;4997960;28;19921;-81
2022/06/20 11:19:45;;;;;;;4.68;1.83;;;;;;;31.06;26.45;101717.81;4973433;28;20100;-82
2022/06/20 11:22:30;;;;;;;6.50;1.85;;;;;;;30.87;27.42;101717.72;4980026;28;20099;-82
2022/06/20 11:25:35;;;;;;;8.63;2.22;;;;;;;31.20;27.10;101708.81;4994859;28;20033;-82
2022/06/20 11:28:39;;;;;;;6.38;1.63;;;;;;;31.43;25.74;101716.41;4978398;28;20041;-81
2022/06/20 11:31:28;;;;;;;8.35;2.13;;;;;;;31.49;26.37;101701.34;4996331;28;20026;-82
2022/06/20 11:34:12;;;;;;;6.68;2.17;;;;;;;31.25;26.79;101678.22;4991275;28;20064;-82
2022/06/20 11:36:51;;;;;;;6.43;2.05;;;;;;;31.22;27.15;101692.69;4996135;28;20034;-82
2022/06/20 11:39:35;;;;;;;3.00;1.80;;;;;;;31.45;25.91;101691.13;4979277;28;20037;-80
2022/06/20 11:42:35;;;;;;;6.85;2.25;;;;;;;31.21;27.01;101685.50;4993601;28;20030;-82
2022/06/20 11:45:19;;;;;;;5.30;2.05;;;;;;;31.47;26.75;101681.34;4993432;28;20022;-82
2022/06/20 11:48:13;;;;;;;6.88;2.08;;;;;;;31.49;27.39;101681.91;4980902;28;20044;-80
2022/06/20 11:50:43;;;;;;;6.25;1.90;;;;;;;31.98;25.75;101675.19;4996883;28;20038;-81
2022/06/20 11:53:37;;;;;;;4.20;1.77;;;;;;;31.84;25.37;101674.25;4980998;28;20049;-82
2022/06/20 11:56:19;;;;;;;6.43;1.73;;;;;;;31.38;26.78;101654.50;4992428;28;20366;-83
2022/06/20 11:59:05;;;;;;;;;;;;;;;31.76;25.53;101666.56;4981213;28;20026;-81
2022/06/20 12:01:38;;;;;;;6.80;1.85;;;;;;;32.66;23.86;101667.56;4995270;28;19921;-84
2022/06/20 12:04:03;;;;;;;5.50;1.83;;;;;;;32.17;24.84;101652.97;4964764;28;20029;-80
2022/06/20 12:06:36;;;;;;;6.80;2.03;;;;;;;32.05;25.03;101662.91;4996685;28;20065;-82
2022/06/20 12:09:11;;;;;;;4.03;1.60;;;;;;;32.32;23.59;101657.47;4980462;28;20050;-82
2022/06/20 12:11:56;;;;;;;8.98;2.05;;;;;;;32.37;24.04;101656.59;4991150;28;20345;-81
2022/06/20 12:14:54;;;;;;;4.07;1.52;;;;;;;32.93;22.27;101661.25;4975504;28;20041;-79
2022/06/20 12:17:29;;;;;;;6.88;1.80;;;;;;;32.67;22.40;101644.16;4970927;28;20177;-82
2022/06/20 12:25:43;;;;;;;3.55;1.50;;;;;;;32.40;22.01;101664.31;4988096;28;20040;-81
2022/06/20 12:28:18;;;;;;;4.17;1.40;;;;;;;31.94;22.00;101654.69;4993825;28;20081;-79
2022/06/20 12:30:46;;;;;;;4.00;1.42;;;;;;;31.85;22.84;101652.81;4989716;28;20129;-79
2022/06/20 12:33:12;;;;;;;4.30;1.35;;;;;;;32.17;22.31;101660.47;4961059;28;20475;-79
2022/06/20 12:35:43;;;;;;;6.78;1.60;;;;;;;32.40;22.23;101650.41;4992920;28;20022;-80
2022/06/20 12:38:16;;;;;;;3.38;1.38;;;;;;;32.20;21.61;101648.75;4979471;28;20049;-80
2022/06/20 12:40:47;;;;;;;6.32;1.40;;;;;;;32.43;21.73;101655.38;4965307;28;20068;-81
2022/06/20 12:43:16;;;;;;;5.40;1.70;;;;;;;32.35;22.54;101647.69;4959694;28;20046;-83
2022/06/20 12:46:17;;;;;;;6.32;1.50;;;;;;;32.70;21.92;101646.31;4991749;28;20038;-80
2022/06/20 12:49:05;;;;;;;3.95;1.50;;;;;;;33.01;21.75;101640.25;4989032;28;20361;-82
2022/06/20 12:51:35;;;;;;;3.78;1.60;;;;;;;32.65;21.95;101642.81;4976275;28;20034;-82
2022/06/20 12:54:16;;;;;;;10.45;2.22;;;;;;;32.71;22.11;101649.94;4990766;28;20408;-82
2022/06/20 12:57:00;;;;;;;10.38;2.15;;;;;;;32.76;22.25;101653.47;5007886;28;20109;-79